sensor_id;sensor_type;location;lat;lon;timestamp;P1;durP1;ratioP1;P2;durP2;ratioP2
9716;SDS011;4897;43.570;27.832;2022-10-22T00:01:02;3.33;;;2.10;;
9716;SDS011;4897;43.570;27.832;2022-10-22T00:03:29;2.78;;;1.80;;
9716;SDS011;4897;43.570;27.832;2022-10-22T00:05:56;3.80;;;1.80;;
9716;SDS011;4897;43.570;27.832;2022-10-22T00:08:23;3.25;;;2.10;;
9716;SDS011;4897;43.570;27.832;2022-10-22T00:10:50;7.32;;;2.13;;
9716;SDS011;4897;43.570;27.832;2022-10-22T00:13:17;3.55;;;2.13;;
9716;SDS011;4897;43.570;27.832;2022-10-22T00:15:45;8.10;;;2.47;;
9716;SDS011;4897;43.570;27.832;2022-10-22T00:18:13;3.65;;;2.42;;
9716;SDS011;4897;43.570;27.832;2022-10-22T00:20:40;3.95;;;2.25;;
9716;SDS011;4897;43.570;27.832;2022-10-22T00:23:07;3.72;;;2.35;;
9716;SDS011;4897;43.570;27.832;2022-10-22T00:25:34;7.10;;;1.80;;
9716;SDS011;4897;43.570;27.832;2022-10-22T00:28:02;3.38;;;2.30;;
9716;SDS011;4897;43.570;27.832;2022-10-22T00:30:29;3.33;;;2.40;;
9716;SDS011;4897;43.570;27.832;2022-10-22T00:32:56;9.90;;;2.70;;
9716;SDS011;4897;43.570;27.832;2022-10-22T00:35:24;6.00;;;2.47;;
9716;SDS011;4897;43.570;27.832;2022-10-22T00:37:51;6.10;;;2.88;;
9716;SDS011;4897;43.570;27.832;2022-10-22T00:40:18;2.95;;;2.25;;
9716;SDS011;4897;43.570;27.832;2022-10-22T00:42:45;6.25;;;2.50;;
9716;SDS011;4897;43.570;27.832;2022-10-22T00:45:16;5.28;;;2.30;;
9716;SDS011;4897;43.570;27.832;2022-10-22T00:47:48;2.85;;;1.98;;
9716;SDS011;4897;43.570;27.832;2022-10-22T00:50:19;4.18;;;2.10;;
9716;SDS011;4897;43.570;27.832;2022-10-22T00:52:50;2.83;;;1.90;;
9716;SDS011;4897;43.570;27.832;2022-10-22T00:55:17;3.17;;;1.70;;
9716;SDS011;4897;43.570;27.832;2022-10-22T00:57:45;12.38;;;2.20;;
9716;SDS011;4897;43.570;27.832;2022-10-22T01:00:13;6.38;;;2.22;;
9716;SDS011;4897;43.570;27.832;2022-10-22T01:02:40;4.75;;;1.83;;
9716;SDS011;4897;43.570;27.832;2022-10-22T01:05:08;3.17;;;2.05;;
9716;SDS011;4897;43.570;27.832;2022-10-22T01:07:38;3.47;;;1.98;;
9716;SDS011;4897;43.570;27.832;2022-10-22T01:10:12;2.13;;;1.73;;
9716;SDS011;4897;43.570;27.832;2022-10-22T01:12:50;2.42;;;1.80;;
9716;SDS011;4897;43.570;27.832;2022-10-22T01:15:28;2.72;;;1.88;;
9716;SDS011;4897;43.570;27.832;2022-10-22T01:18:04;4.53;;;1.98;;
9716;SDS011;4897;43.570;27.832;2022-10-22T01:20:45;5.20;;;2.10;;
9716;SDS011;4897;43.570;27.832;2022-10-22T01:23:29;2.30;;;1.80;;
9716;SDS011;4897;43.570;27.832;2022-10-22T01:26:12;3.25;;;1.80;;
9716;SDS011;4897;43.570;27.832;2022-10-22T01:28:51;5.68;;;2.17;;
9716;SDS011;4897;43.570;27.832;2022-10-22T01:31:24;5.78;;;1.88;;
9716;SDS011;4897;43.570;27.832;2022-10-22T01:33:55;6.05;;;2.17;;
9716;SDS011;4897;43.570;27.832;2022-10-22T01:36:25;2.47;;;1.83;;
9716;SDS011;4897;43.570;27.832;2022-10-22T01:38:55;2.45;;;1.85;;
9716;SDS011;4897;43.570;27.832;2022-10-22T01:41:23;2.58;;;1.85;;
9716;SDS011;4897;43.570;27.832;2022-10-22T01:43:51;2.67;;;1.90;;
9716;SDS011;4897;43.570;27.832;2022-10-22T01:46:18;2.53;;;2.10;;
9716;SDS011;4897;43.570;27.832;2022-10-22T01:48:50;5.30;;;1.90;;
9716;SDS011;4897;43.570;27.832;2022-10-22T01:51:33;2.70;;;1.98;;
9716;SDS011;4897;43.570;27.832;2022-10-22T01:54:15;3.85;;;1.90;;
9716;SDS011;4897;43.570;27.832;2022-10-22T01:56:53;2.28;;;1.90;;
9716;SDS011;4897;43.570;27.832;2022-10-22T01:59:33;2.30;;;1.80;;
9716;SDS011;4897;43.570;27.832;2022-10-22T02:02:10;3.65;;;2.28;;
9716;SDS011;4897;43.570;27.832;2022-10-22T02:04:45;7.45;;;2.20;;
9716;SDS011;4897;43.570;27.832;2022-10-22T02:07:16;2.75;;;2.13;;
9716;SDS011;4897;43.570;27.832;2022-10-22T02:09:46;3.42;;;2.05;;
9716;SDS011;4897;43.570;27.832;2022-10-22T02:12:17;6.43;;;2.17;;
9716;SDS011;4897;43.570;27.832;2022-10-22T02:14:48;3.38;;;1.80;;
9716;SDS011;4897;43.570;27.832;2022-10-22T02:17:18;3.28;;;2.03;;
9716;SDS011;4897;43.570;27.832;2022-10-22T02:19:47;2.88;;;2.10;;
9716;SDS011;4897;43.570;27.832;2022-10-22T02:22:18;4.82;;;2.00;;
9716;SDS011;4897;43.570;27.832;2022-10-22T02:24:47;2.85;;;2.20;;
9716;SDS011;4897;43.570;27.832;2022-10-22T02:27:16;2.75;;;2.20;;
9716;SDS011;4897;43.570;27.832;2022-10-22T02:29:51;4.65;;;2.20;;
9716;SDS011;4897;43.570;27.832;2022-10-22T02:32:25;4.18;;;2.33;;
9716;SDS011;4897;43.570;27.832;2022-10-22T02:34:57;3.92;;;2.35;;
9716;SDS011;4897;43.570;27.832;2022-10-22T02:37:26;3.88;;;2.30;;
9716;SDS011;4897;43.570;27.832;2022-10-22T02:39:54;5.80;;;2.30;;
9716;SDS011;4897;43.570;27.832;2022-10-22T02:42:21;4.40;;;2.75;;
9716;SDS011;4897;43.570;27.832;2022-10-22T02:44:51;2.85;;;2.45;;
9716;SDS011;4897;43.570;27.832;2022-10-22T02:47:18;4.57;;;2.80;;
9716;SDS011;4897;43.570;27.832;2022-10-22T02:49:45;4.32;;;2.38;;
9716;SDS011;4897;43.570;27.832;2022-10-22T02:52:12;6.68;;;2.60;;
9716;SDS011;4897;43.570;27.832;2022-10-22T02:54:39;4.25;;;3.22;;
9716;SDS011;4897;43.570;27.832;2022-10-22T02:57:06;4.65;;;2.58;;
9716;SDS011;4897;43.570;27.832;2022-10-22T02:59:33;6.25;;;2.78;;
9716;SDS011;4897;43.570;27.832;2022-10-22T03:02:01;2.58;;;2.10;;
9716;SDS011;4897;43.570;27.832;2022-10-22T03:04:28;5.05;;;2.60;;
9716;SDS011;4897;43.570;27.832;2022-10-22T03:06:55;4.22;;;2.88;;
9716;SDS011;4897;43.570;27.832;2022-10-22T03:09:22;4.35;;;2.55;;
9716;SDS011;4897;43.570;27.832;2022-10-22T03:11:49;4.32;;;2.55;;
9716;SDS011;4897;43.570;27.832;2022-10-22T03:14:16;6.55;;;2.75;;
9716;SDS011;4897;43.570;27.832;2022-10-22T03:16:43;4.15;;;2.60;;
9716;SDS011;4897;43.570;27.832;2022-10-22T03:19:11;4.18;;;2.70;;
9716;SDS011;4897;43.570;27.832;2022-10-22T03:21:39;4.75;;;2.55;;
9716;SDS011;4897;43.570;27.832;2022-10-22T03:24:12;4.22;;;2.65;;
9716;SDS011;4897;43.570;27.832;2022-10-22T03:26:41;3.65;;;2.90;;
9716;SDS011;4897;43.570;27.832;2022-10-22T03:29:10;4.55;;;2.42;;
9716;SDS011;4897;43.570;27.832;2022-10-22T03:31:39;4.35;;;3.03;;
9716;SDS011;4897;43.570;27.832;2022-10-22T03:34:06;4.20;;;2.55;;
9716;SDS011;4897;43.570;27.832;2022-10-22T03:36:35;3.67;;;2.30;;
9716;SDS011;4897;43.570;27.832;2022-10-22T03:39:01;4.18;;;2.10;;
9716;SDS011;4897;43.570;27.832;2022-10-22T03:41:32;11.23;;;2.65;;
9716;SDS011;4897;43.570;27.832;2022-10-22T03:44:00;3.13;;;2.33;;
9716;SDS011;4897;43.570;27.832;2022-10-22T03:46:28;4.28;;;2.33;;
9716;SDS011;4897;43.570;27.832;2022-10-22T03:48:55;4.35;;;2.53;;
9716;SDS011;4897;43.570;27.832;2022-10-22T03:51:22;4.03;;;2.00;;
9716;SDS011;4897;43.570;27.832;2022-10-22T03:53:52;2.67;;;2.05;;
9716;SDS011;4897;43.570;27.832;2022-10-22T03:56:20;2.67;;;2.28;;
9716;SDS011;4897;43.570;27.832;2022-10-22T03:58:47;2.35;;;1.83;;
9716;SDS011;4897;43.570;27.832;2022-10-22T04:01:14;3.47;;;2.03;;
9716;SDS011;4897;43.570;27.832;2022-10-22T04:03:41;6.10;;;2.03;;
9716;SDS011;4897;43.570;27.832;2022-10-22T04:06:08;2.95;;;2.00;;
9716;SDS011;4897;43.570;27.832;2022-10-22T04:08:37;2.42;;;1.83;;
9716;SDS011;4897;43.570;27.832;2022-10-22T04:11:06;4.95;;;1.77;;
9716;SDS011;4897;43.570;27.832;2022-10-22T04:13:34;2.40;;;1.88;;
9716;SDS011;4897;43.570;27.832;2022-10-22T04:16:07;3.20;;;2.10;;
9716;SDS011;4897;43.570;27.832;2022-10-22T04:18:35;6.10;;;2.22;;
9716;SDS011;4897;43.570;27.832;2022-10-22T04:21:02;3.75;;;1.85;;
9716;SDS011;4897;43.570;27.832;2022-10-22T04:23:30;3.40;;;1.95;;
9716;SDS011;4897;43.570;27.832;2022-10-22T04:25:57;2.97;;;1.75;;
9716;SDS011;4897;43.570;27.832;2022-10-22T04:28:26;3.17;;;2.00;;
9716;SDS011;4897;43.570;27.832;2022-10-22T04:30:53;2.75;;;2.08;;
9716;SDS011;4897;43.570;27.832;2022-10-22T04:33:20;3.67;;;2.17;;
9716;SDS011;4897;43.570;27.832;2022-10-22T04:35:47;7.78;;;1.98;;
9716;SDS011;4897;43.570;27.832;2022-10-22T04:38:14;3.13;;;1.77;;
9716;SDS011;4897;43.570;27.832;2022-10-22T04:40:41;4.15;;;2.25;;
9716;SDS011;4897;43.570;27.832;2022-10-22T04:43:08;3.92;;;2.25;;
9716;SDS011;4897;43.570;27.832;2022-10-22T04:45:36;9.40;;;2.80;;
9716;SDS011;4897;43.570;27.832;2022-10-22T04:48:03;7.07;;;2.30;;
9716;SDS011;4897;43.570;27.832;2022-10-22T04:50:31;6.40;;;2.20;;
9716;SDS011;4897;43.570;27.832;2022-10-22T04:52:58;3.38;;;2.30;;
9716;SDS011;4897;43.570;27.832;2022-10-22T04:55:24;2.30;;;1.95;;
9716;SDS011;4897;43.570;27.832;2022-10-22T04:57:51;3.65;;;2.00;;
9716;SDS011;4897;43.570;27.832;2022-10-22T05:00:18;3.72;;;2.08;;
9716;SDS011;4897;43.570;27.832;2022-10-22T05:02:49;5.75;;;2.33;;
9716;SDS011;4897;43.570;27.832;2022-10-22T05:05:16;5.53;;;2.42;;
9716;SDS011;4897;43.570;27.832;2022-10-22T05:07:43;4.60;;;1.70;;
9716;SDS011;4897;43.570;27.832;2022-10-22T05:10:10;3.05;;;1.98;;
9716;SDS011;4897;43.570;27.832;2022-10-22T05:12:36;2.97;;;1.73;;
9716;SDS011;4897;43.570;27.832;2022-10-22T05:15:04;3.85;;;2.00;;
9716;SDS011;4897;43.570;27.832;2022-10-22T05:17:33;4.68;;;2.05;;
9716;SDS011;4897;43.570;27.832;2022-10-22T05:20:02;3.10;;;2.20;;
9716;SDS011;4897;43.570;27.832;2022-10-22T05:22:30;3.95;;;2.03;;
9716;SDS011;4897;43.570;27.832;2022-10-22T05:24:58;3.15;;;1.88;;
9716;SDS011;4897;43.570;27.832;2022-10-22T05:27:25;3.88;;;2.20;;
9716;SDS011;4897;43.570;27.832;2022-10-22T05:29:52;2.17;;;1.65;;
9716;SDS011;4897;43.570;27.832;2022-10-22T05:32:19;3.63;;;2.20;;
9716;SDS011;4897;43.570;27.832;2022-10-22T05:34:46;4.07;;;2.08;;
9716;SDS011;4897;43.570;27.832;2022-10-22T05:37:14;4.32;;;2.35;;
9716;SDS011;4897;43.570;27.832;2022-10-22T05:39:41;6.70;;;2.58;;
9716;SDS011;4897;43.570;27.832;2022-10-22T05:42:10;10.70;;;3.10;;
9716;SDS011;4897;43.570;27.832;2022-10-22T05:44:37;9.82;;;5.35;;
9716;SDS011;4897;43.570;27.832;2022-10-22T05:47:05;5.07;;;3.42;;
9716;SDS011;4897;43.570;27.832;2022-10-22T05:49:31;5.15;;;2.80;;
9716;SDS011;4897;43.570;27.832;2022-10-22T05:51:58;3.80;;;2.00;;
9716;SDS011;4897;43.570;27.832;2022-10-22T05:54:29;2.13;;;1.73;;
9716;SDS011;4897;43.570;27.832;2022-10-22T05:56:56;4.50;;;2.30;;
9716;SDS011;4897;43.570;27.832;2022-10-22T05:59:23;6.15;;;2.10;;
9716;SDS011;4897;43.570;27.832;2022-10-22T06:01:50;8.40;;;2.40;;
9716;SDS011;4897;43.570;27.832;2022-10-22T06:04:17;3.10;;;1.90;;
9716;SDS011;4897;43.570;27.832;2022-10-22T06:06:44;2.47;;;1.90;;
9716;SDS011;4897;43.570;27.832;2022-10-22T06:09:14;7.45;;;2.20;;
9716;SDS011;4897;43.570;27.832;2022-10-22T06:11:45;6.80;;;1.92;;
9716;SDS011;4897;43.570;27.832;2022-10-22T06:14:13;5.63;;;2.28;;
9716;SDS011;4897;43.570;27.832;2022-10-22T06:16:40;5.90;;;2.50;;
9716;SDS011;4897;43.570;27.832;2022-10-22T06:19:08;5.00;;;2.30;;
9716;SDS011;4897;43.570;27.832;2022-10-22T06:21:36;6.43;;;2.28;;
9716;SDS011;4897;43.570;27.832;2022-10-22T06:24:06;4.15;;;2.10;;
9716;SDS011;4897;43.570;27.832;2022-10-22T06:26:36;5.85;;;2.42;;
9716;SDS011;4897;43.570;27.832;2022-10-22T06:29:04;2.47;;;1.90;;
9716;SDS011;4897;43.570;27.832;2022-10-22T06:31:32;5.85;;;1.85;;
9716;SDS011;4897;43.570;27.832;2022-10-22T06:34:02;3.65;;;2.00;;
9716;SDS011;4897;43.570;27.832;2022-10-22T06:36:29;10.38;;;1.83;;
9716;SDS011;4897;43.570;27.832;2022-10-22T06:38:56;4.47;;;2.47;;
9716;SDS011;4897;43.570;27.832;2022-10-22T06:41:23;6.07;;;2.33;;
9716;SDS011;4897;43.570;27.832;2022-10-22T06:43:50;2.92;;;1.70;;
9716;SDS011;4897;43.570;27.832;2022-10-22T06:46:21;3.25;;;1.90;;
9716;SDS011;4897;43.570;27.832;2022-10-22T06:48:49;6.97;;;2.08;;
9716;SDS011;4897;43.570;27.832;2022-10-22T06:51:17;3.97;;;1.90;;
9716;SDS011;4897;43.570;27.832;2022-10-22T06:53:47;4.47;;;2.28;;
9716;SDS011;4897;43.570;27.832;2022-10-22T06:56:15;2.80;;;2.00;;
9716;SDS011;4897;43.570;27.832;2022-10-22T06:58:45;6.88;;;2.10;;
9716;SDS011;4897;43.570;27.832;2022-10-22T07:01:13;2.33;;;1.80;;
9716;SDS011;4897;43.570;27.832;2022-10-22T07:03:42;3.25;;;2.00;;
9716;SDS011;4897;43.570;27.832;2022-10-22T07:06:10;5.13;;;2.22;;
9716;SDS011;4897;43.570;27.832;2022-10-22T07:08:39;4.47;;;1.90;;
9716;SDS011;4897;43.570;27.832;2022-10-22T07:11:07;5.82;;;2.00;;
9716;SDS011;4897;43.570;27.832;2022-10-22T07:13:35;3.45;;;1.92;;
9716;SDS011;4897;43.570;27.832;2022-10-22T07:16:05;2.92;;;2.17;;
9716;SDS011;4897;43.570;27.832;2022-10-22T07:18:33;8.65;;;2.20;;
9716;SDS011;4897;43.570;27.832;2022-10-22T07:21:05;3.25;;;1.75;;
9716;SDS011;4897;43.570;27.832;2022-10-22T07:23:33;6.93;;;2.10;;
9716;SDS011;4897;43.570;27.832;2022-10-22T07:26:00;3.17;;;1.85;;
9716;SDS011;4897;43.570;27.832;2022-10-22T07:28:27;2.85;;;1.80;;
9716;SDS011;4897;43.570;27.832;2022-10-22T07:30:54;3.05;;;1.73;;
9716;SDS011;4897;43.570;27.832;2022-10-22T07:33:21;7.10;;;2.20;;
9716;SDS011;4897;43.570;27.832;2022-10-22T07:35:48;6.13;;;2.30;;
9716;SDS011;4897;43.570;27.832;2022-10-22T07:38:17;4.22;;;2.05;;
9716;SDS011;4897;43.570;27.832;2022-10-22T07:40:44;3.28;;;1.92;;
9716;SDS011;4897;43.570;27.832;2022-10-22T07:43:12;2.05;;;1.67;;
9716;SDS011;4897;43.570;27.832;2022-10-22T07:45:39;6.35;;;1.85;;
9716;SDS011;4897;43.570;27.832;2022-10-22T07:48:06;2.33;;;1.65;;
9716;SDS011;4897;43.570;27.832;2022-10-22T07:50:33;5.82;;;1.80;;
9716;SDS011;4897;43.570;27.832;2022-10-22T07:53:00;8.38;;;2.08;;
9716;SDS011;4897;43.570;27.832;2022-10-22T07:55:28;2.90;;;1.70;;
9716;SDS011;4897;43.570;27.832;2022-10-22T07:57:55;3.50;;;2.00;;
9716;SDS011;4897;43.570;27.832;2022-10-22T08:00:22;12.18;;;2.10;;
9716;SDS011;4897;43.570;27.832;2022-10-22T08:02:49;8.80;;;1.83;;
9716;SDS011;4897;43.570;27.832;2022-10-22T08:05:16;2.15;;;1.75;;
9716;SDS011;4897;43.570;27.832;2022-10-22T08:07:43;5.03;;;2.10;;
9716;SDS011;4897;43.570;27.832;2022-10-22T08:10:10;5.10;;;2.08;;
9716;SDS011;4897;43.570;27.832;2022-10-22T08:12:39;4.35;;;1.88;;
9716;SDS011;4897;43.570;27.832;2022-10-22T08:15:07;3.58;;;1.95;;
9716;SDS011;4897;43.570;27.832;2022-10-22T08:17:35;3.60;;;2.10;;
9716;SDS011;4897;43.570;27.832;2022-10-22T08:20:01;3.65;;;2.00;;
9716;SDS011;4897;43.570;27.832;2022-10-22T08:22:29;3.17;;;2.17;;
9716;SDS011;4897;43.570;27.832;2022-10-22T08:24:56;12.38;;;2.35;;
9716;SDS011;4897;43.570;27.832;2022-10-22T08:27:24;3.47;;;2.28;;
9716;SDS011;4897;43.570;27.832;2022-10-22T08:29:53;3.55;;;1.95;;
9716;SDS011;4897;43.570;27.832;2022-10-22T08:32:20;8.40;;;2.33;;
9716;SDS011;4897;43.570;27.832;2022-10-22T08:34:47;2.75;;;1.98;;
9716;SDS011;4897;43.570;27.832;2022-10-22T08:37:14;3.80;;;2.05;;
9716;SDS011;4897;43.570;27.832;2022-10-22T08:39:41;3.92;;;2.08;;
9716;SDS011;4897;43.570;27.832;2022-10-22T08:42:16;6.20;;;2.38;;
9716;SDS011;4897;43.570;27.832;2022-10-22T08:45:02;5.00;;;2.10;;
9716;SDS011;4897;43.570;27.832;2022-10-22T08:47:41;4.65;;;2.42;;
9716;SDS011;4897;43.570;27.832;2022-10-22T08:50:29;2.72;;;1.60;;
9716;SDS011;4897;43.570;27.832;2022-10-22T08:52:59;4.13;;;2.00;;
9716;SDS011;4897;43.570;27.832;2022-10-22T08:55:29;3.72;;;2.17;;
9716;SDS011;4897;43.570;27.832;2022-10-22T08:57:59;6.90;;;2.42;;
9716;SDS011;4897;43.570;27.832;2022-10-22T09:00:35;3.25;;;2.10;;
9716;SDS011;4897;43.570;27.832;2022-10-22T09:03:14;4.07;;;2.40;;
9716;SDS011;4897;43.570;27.832;2022-10-22T09:05:55;3.05;;;2.10;;
9716;SDS011;4897;43.570;27.832;2022-10-22T09:08:28;2.78;;;1.85;;
9716;SDS011;4897;43.570;27.832;2022-10-22T09:10:57;4.82;;;1.92;;
9716;SDS011;4897;43.570;27.832;2022-10-22T09:13:31;3.75;;;1.75;;
9716;SDS011;4897;43.570;27.832;2022-10-22T09:16:09;5.30;;;2.15;;
9716;SDS011;4897;43.570;27.832;2022-10-22T09:18:42;4.55;;;2.45;;
9716;SDS011;4897;43.570;27.832;2022-10-22T09:21:21;2.35;;;1.98;;
9716;SDS011;4897;43.570;27.832;2022-10-22T09:24:04;4.53;;;1.95;;
9716;SDS011;4897;43.570;27.832;2022-10-22T09:26:37;2.65;;;1.92;;
9716;SDS011;4897;43.570;27.832;2022-10-22T09:29:06;6.00;;;2.03;;
9716;SDS011;4897;43.570;27.832;2022-10-22T09:31:40;11.45;;;2.42;;
9716;SDS011;4897;43.570;27.832;2022-10-22T09:34:07;6.30;;;2.50;;
9716;SDS011;4897;43.570;27.832;2022-10-22T09:36:34;2.65;;;1.85;;
9716;SDS011;4897;43.570;27.832;2022-10-22T09:39:03;4.40;;;2.28;;
9716;SDS011;4897;43.570;27.832;2022-10-22T09:41:48;2.88;;;2.03;;
9716;SDS011;4897;43.570;27.832;2022-10-22T09:44:16;5.25;;;2.22;;
9716;SDS011;4897;43.570;27.832;2022-10-22T09:46:44;3.17;;;2.22;;
9716;SDS011;4897;43.570;27.832;2022-10-22T09:49:12;3.78;;;2.00;;
9716;SDS011;4897;43.570;27.832;2022-10-22T09:51:45;3.55;;;2.20;;
9716;SDS011;4897;43.570;27.832;2022-10-22T09:54:16;7.68;;;2.50;;
9716;SDS011;4897;43.570;27.832;2022-10-22T09:56:55;4.15;;;2.00;;
9716;SDS011;4897;43.570;27.832;2022-10-22T09:59:25;6.93;;;2.45;;
9716;SDS011;4897;43.570;27.832;2022-10-22T10:02:05;5.15;;;2.20;;
9716;SDS011;4897;43.570;27.832;2022-10-22T10:04:39;4.32;;;2.10;;
9716;SDS011;4897;43.570;27.832;2022-10-22T10:07:14;4.93;;;2.20;;
9716;SDS011;4897;43.570;27.832;2022-10-22T10:09:42;3.92;;;2.00;;
9716;SDS011;4897;43.570;27.832;2022-10-22T10:12:13;3.25;;;2.00;;
9716;SDS011;4897;43.570;27.832;2022-10-22T10:14:52;3.72;;;1.75;;
9716;SDS011;4897;43.570;27.832;2022-10-22T10:17:28;2.70;;;2.10;;
9716;SDS011;4897;43.570;27.832;2022-10-22T10:20:07;3.33;;;2.40;;
9716;SDS011;4897;43.570;27.832;2022-10-22T10:22:45;8.70;;;3.08;;
9716;SDS011;4897;43.570;27.832;2022-10-22T10:28:15;11.57;;;2.45;;
9716;SDS011;4897;43.570;27.832;2022-10-22T10:30:51;8.82;;;2.35;;
9716;SDS011;4897;43.570;27.832;2022-10-22T10:33:27;6.82;;;2.47;;
9716;SDS011;4897;43.570;27.832;2022-10-22T10:36:05;4.13;;;2.03;;
9716;SDS011;4897;43.570;27.832;2022-10-22T10:38:39;6.15;;;2.03;;
9716;SDS011;4897;43.570;27.832;2022-10-22T10:41:22;5.93;;;2.30;;
9716;SDS011;4897;43.570;27.832;2022-10-22T10:43:58;6.57;;;2.17;;
9716;SDS011;4897;43.570;27.832;2022-10-22T10:46:41;4.28;;;2.00;;
9716;SDS011;4897;43.570;27.832;2022-10-22T10:49:17;2.55;;;1.92;;
9716;SDS011;4897;43.570;27.832;2022-10-22T10:51:51;3.00;;;2.03;;
9716;SDS011;4897;43.570;27.832;2022-10-22T10:54:30;4.45;;;2.50;;
9716;SDS011;4897;43.570;27.832;2022-10-22T10:57:08;4.80;;;2.30;;
9716;SDS011;4897;43.570;27.832;2022-10-22T10:59:48;3.28;;;2.50;;
9716;SDS011;4897;43.570;27.832;2022-10-22T11:05:35;7.38;;;2.53;;
9716;SDS011;4897;43.570;27.832;2022-10-22T11:08:06;3.70;;;2.20;;
9716;SDS011;4897;43.570;27.832;2022-10-22T11:10:38;5.43;;;2.47;;
9716;SDS011;4897;43.570;27.832;2022-10-22T11:13:11;2.80;;;2.38;;
9716;SDS011;4897;43.570;27.832;2022-10-22T11:15:44;8.35;;;2.70;;
9716;SDS011;4897;43.570;27.832;2022-10-22T11:18:18;11.63;;;2.55;;
9716;SDS011;4897;43.570;27.832;2022-10-22T11:20:52;3.15;;;2.28;;
9716;SDS011;4897;43.570;27.832;2022-10-22T11:23:31;4.90;;;2.10;;
9716;SDS011;4897;43.570;27.832;2022-10-22T11:26:08;11.15;;;2.60;;
9716;SDS011;4897;43.570;27.832;2022-10-22T11:28:45;3.90;;;2.30;;
9716;SDS011;4897;43.570;27.832;2022-10-22T11:31:15;7.75;;;2.40;;
9716;SDS011;4897;43.570;27.832;2022-10-22T11:33:47;7.07;;;2.10;;
9716;SDS011;4897;43.570;27.832;2022-10-22T11:36:20;7.47;;;2.42;;
9716;SDS011;4897;43.570;27.832;2022-10-22T11:38:51;10.25;;;2.20;;
9716;SDS011;4897;43.570;27.832;2022-10-22T11:41:23;6.97;;;2.10;;
9716;SDS011;4897;43.570;27.832;2022-10-22T11:44:04;6.10;;;2.55;;
9716;SDS011;4897;43.570;27.832;2022-10-22T11:46:43;7.18;;;2.20;;
9716;SDS011;4897;43.570;27.832;2022-10-22T11:49:16;3.08;;;2.25;;
9716;SDS011;4897;43.570;27.832;2022-10-22T11:51:49;3.47;;;2.25;;
9716;SDS011;4897;43.570;27.832;2022-10-22T11:54:30;4.25;;;2.30;;
9716;SDS011;4897;43.570;27.832;2022-10-22T11:57:17;8.48;;;2.33;;
9716;SDS011;4897;43.570;27.832;2022-10-22T11:59:49;2.85;;;2.30;;
9716;SDS011;4897;43.570;27.832;2022-10-22T12:02:29;7.93;;;2.33;;
9716;SDS011;4897;43.570;27.832;2022-10-22T12:05:16;4.45;;;2.10;;
9716;SDS011;4897;43.570;27.832;2022-10-22T12:10:58;5.38;;;2.30;;
9716;SDS011;4897;43.570;27.832;2022-10-22T12:13:29;6.18;;;2.58;;
9716;SDS011;4897;43.570;27.832;2022-10-22T12:15:58;4.50;;;2.42;;
9716;SDS011;4897;43.570;27.832;2022-10-22T12:18:30;7.05;;;2.10;;
9716;SDS011;4897;43.570;27.832;2022-10-22T12:21:00;5.63;;;2.38;;
9716;SDS011;4897;43.570;27.832;2022-10-22T12:23:29;5.45;;;2.50;;
9716;SDS011;4897;43.570;27.832;2022-10-22T12:26:01;2.50;;;2.17;;
9716;SDS011;4897;43.570;27.832;2022-10-22T12:28:29;5.43;;;2.38;;
9716;SDS011;4897;43.570;27.832;2022-10-22T12:31:04;6.78;;;2.15;;
9716;SDS011;4897;43.570;27.832;2022-10-22T12:33:31;4.90;;;2.10;;
9716;SDS011;4897;43.570;27.832;2022-10-22T12:35:58;2.38;;;2.00;;
9716;SDS011;4897;43.570;27.832;2022-10-22T12:38:28;4.03;;;2.28;;
9716;SDS011;4897;43.570;27.832;2022-10-22T12:40:58;6.32;;;2.20;;
9716;SDS011;4897;43.570;27.832;2022-10-22T12:43:26;6.88;;;2.53;;
9716;SDS011;4897;43.570;27.832;2022-10-22T12:45:55;8.73;;;2.95;;
9716;SDS011;4897;43.570;27.832;2022-10-22T12:48:26;3.88;;;2.50;;
9716;SDS011;4897;43.570;27.832;2022-10-22T12:50:58;5.43;;;4.13;;
9716;SDS011;4897;43.570;27.832;2022-10-22T12:53:28;6.03;;;2.88;;
9716;SDS011;4897;43.570;27.832;2022-10-22T12:56:00;8.65;;;2.63;;
9716;SDS011;4897;43.570;27.832;2022-10-22T12:58:30;7.28;;;3.00;;
9716;SDS011;4897;43.570;27.832;2022-10-22T13:01:05;6.72;;;2.90;;
9716;SDS011;4897;43.570;27.832;2022-10-22T13:03:34;6.32;;;2.53;;
9716;SDS011;4897;43.570;27.832;2022-10-22T13:06:12;7.57;;;2.45;;
9716;SDS011;4897;43.570;27.832;2022-10-22T13:08:54;5.93;;;2.72;;
9716;SDS011;4897;43.570;27.832;2022-10-22T13:11:32;3.78;;;1.73;;
9716;SDS011;4897;43.570;27.832;2022-10-22T13:14:02;4.40;;;2.47;;
9716;SDS011;4897;43.570;27.832;2022-10-22T13:16:30;4.90;;;2.60;;
9716;SDS011;4897;43.570;27.832;2022-10-22T13:18:57;9.80;;;2.70;;
9716;SDS011;4897;43.570;27.832;2022-10-22T13:21:28;5.97;;;2.88;;
9716;SDS011;4897;43.570;27.832;2022-10-22T13:23:59;7.90;;;2.75;;
9716;SDS011;4897;43.570;27.832;2022-10-22T13:26:32;4.28;;;2.55;;
9716;SDS011;4897;43.570;27.832;2022-10-22T13:29:00;7.72;;;2.55;;
9716;SDS011;4897;43.570;27.832;2022-10-22T13:31:34;8.07;;;2.92;;
9716;SDS011;4897;43.570;27.832;2022-10-22T13:34:03;3.47;;;2.63;;
9716;SDS011;4897;43.570;27.832;2022-10-22T13:36:33;7.22;;;3.10;;
9716;SDS011;4897;43.570;27.832;2022-10-22T13:39:04;9.60;;;2.80;;
9716;SDS011;4897;43.570;27.832;2022-10-22T13:41:37;4.75;;;2.95;;
9716;SDS011;4897;43.570;27.832;2022-10-22T13:44:04;7.13;;;2.92;;
9716;SDS011;4897;43.570;27.832;2022-10-22T13:46:31;7.22;;;2.65;;
9716;SDS011;4897;43.570;27.832;2022-10-22T13:49:04;5.95;;;2.78;;
9716;SDS011;4897;43.570;27.832;2022-10-22T13:51:32;4.43;;;2.38;;
9716;SDS011;4897;43.570;27.832;2022-10-22T13:54:00;10.05;;;3.05;;
9716;SDS011;4897;43.570;27.832;2022-10-22T13:56:29;5.88;;;2.85;;
9716;SDS011;4897;43.570;27.832;2022-10-22T13:58:57;4.32;;;2.80;;
9716;SDS011;4897;43.570;27.832;2022-10-22T14:01:24;12.73;;;2.72;;
9716;SDS011;4897;43.570;27.832;2022-10-22T14:03:53;10.05;;;2.90;;
9716;SDS011;4897;43.570;27.832;2022-10-22T14:06:22;5.85;;;2.95;;
9716;SDS011;4897;43.570;27.832;2022-10-22T14:08:52;5.63;;;2.70;;
9716;SDS011;4897;43.570;27.832;2022-10-22T14:11:21;6.55;;;3.20;;
9716;SDS011;4897;43.570;27.832;2022-10-22T14:13:48;4.45;;;2.95;;
9716;SDS011;4897;43.570;27.832;2022-10-22T14:16:17;4.97;;;3.00;;
9716;SDS011;4897;43.570;27.832;2022-10-22T14:18:46;5.90;;;2.95;;
9716;SDS011;4897;43.570;27.832;2022-10-22T14:21:15;9.57;;;3.08;;
9716;SDS011;4897;43.570;27.832;2022-10-22T14:23:44;5.85;;;3.40;;
9716;SDS011;4897;43.570;27.832;2022-10-22T14:26:21;7.40;;;2.58;;
9716;SDS011;4897;43.570;27.832;2022-10-22T14:28:49;8.38;;;2.80;;
9716;SDS011;4897;43.570;27.832;2022-10-22T14:31:18;4.38;;;2.50;;
9716;SDS011;4897;43.570;27.832;2022-10-22T14:33:47;6.15;;;2.75;;
9716;SDS011;4897;43.570;27.832;2022-10-22T14:36:15;6.32;;;2.95;;
9716;SDS011;4897;43.570;27.832;2022-10-22T14:38:43;8.75;;;4.55;;
9716;SDS011;4897;43.570;27.832;2022-10-22T14:41:16;8.05;;;3.67;;
9716;SDS011;4897;43.570;27.832;2022-10-22T14:43:45;6.93;;;3.28;;
9716;SDS011;4897;43.570;27.832;2022-10-22T14:46:12;7.68;;;3.45;;
9716;SDS011;4897;43.570;27.832;2022-10-22T14:48:42;7.82;;;3.92;;
9716;SDS011;4897;43.570;27.832;2022-10-22T14:51:11;4.35;;;3.55;;
9716;SDS011;4897;43.570;27.832;2022-10-22T14:53:39;10.57;;;3.85;;
9716;SDS011;4897;43.570;27.832;2022-10-22T14:56:07;10.30;;;4.43;;
9716;SDS011;4897;43.570;27.832;2022-10-22T14:58:36;14.60;;;4.05;;
9716;SDS011;4897;43.570;27.832;2022-10-22T15:01:03;6.63;;;3.38;;
9716;SDS011;4897;43.570;27.832;2022-10-22T15:03:30;9.60;;;3.88;;
9716;SDS011;4897;43.570;27.832;2022-10-22T15:05:58;6.63;;;3.38;;
9716;SDS011;4897;43.570;27.832;2022-10-22T15:08:26;9.38;;;3.85;;
9716;SDS011;4897;43.570;27.832;2022-10-22T15:10:56;7.82;;;3.70;;
9716;SDS011;4897;43.570;27.832;2022-10-22T15:13:25;7.82;;;3.42;;
9716;SDS011;4897;43.570;27.832;2022-10-22T15:15:52;5.90;;;3.10;;
9716;SDS011;4897;43.570;27.832;2022-10-22T15:18:19;4.00;;;3.10;;
9716;SDS011;4897;43.570;27.832;2022-10-22T15:20:53;6.93;;;2.97;;
9716;SDS011;4897;43.570;27.832;2022-10-22T15:23:22;4.53;;;2.95;;
9716;SDS011;4897;43.570;27.832;2022-10-22T15:25:49;5.47;;;3.10;;
9716;SDS011;4897;43.570;27.832;2022-10-22T15:28:16;7.93;;;3.50;;